HBELO LSGL-LSGG
Flight info
| Callsign | HBELO |
|---|---|
| Flight time | 0h 38m |
| Altitude | 3000 |
| Route | LOCAL VFR |
| Aircraft | DA40/L-V/N |
Departure
| Time | 2026-05-07 19:00 |
|---|---|
| Airport | Lausanne la Blécherette Airport (LSGL) |
Arrival
| Time | 2026-05-07 19:38 |
|---|---|
| Airport | Geneva International Airport (LSGG) |
| Time | Latitude | Longitude | Altitude | Speed | Heading |
|---|---|---|---|---|---|
| 2026-05-07 18:33 | 46.54417 | 6.61735 | 2000 ft | 0 kts | 184° |
| 2026-05-07 18:53 | 46.54409 | 6.61734 | 1994 ft | 2 kts | 180° |
| 2026-05-07 18:53 | 46.54395 | 6.61735 | 2003 ft | 3 kts | 176° |
| 2026-05-07 18:53 | 46.54378 | 6.61741 | 1998 ft | 3 kts | 171° |
| 2026-05-07 18:53 | 46.54366 | 6.61739 | 1998 ft | 1 kts | 202° |
| 2026-05-07 18:54 | 46.54363 | 6.61714 | 1998 ft | 2 kts | 268° |
| 2026-05-07 18:54 | 46.54364 | 6.61700 | 1998 ft | 0 kts | 270° |
| 2026-05-07 18:56 | 46.54364 | 6.61698 | 1998 ft | 1 kts | 273° |
| 2026-05-07 18:57 | 46.54363 | 6.61669 | 1998 ft | 5 kts | 244° |
| 2026-05-07 18:57 | 46.54328 | 6.61651 | 1997 ft | 7 kts | 182° |
| 2026-05-07 18:57 | 46.54285 | 6.61646 | 1997 ft | 5 kts | 183° |
| 2026-05-07 18:57 | 46.54233 | 6.61633 | 1996 ft | 9 kts | 190° |
| 2026-05-07 18:58 | 46.54177 | 6.61623 | 1993 ft | 8 kts | 183° |
| 2026-05-07 18:58 | 46.54152 | 6.61633 | 1993 ft | 1 kts | 357° |
| 2026-05-07 18:58 | 46.54169 | 6.61634 | 1993 ft | 14 kts | 4° |
| 2026-05-07 18:59 | 46.54410 | 6.61656 | 2000 ft | 55 kts | 3° |
| 2026-05-07 18:59 | 46.54853 | 6.61681 | 2131 ft | 65 kts | 0° |
| 2026-05-07 18:59 | 46.55312 | 6.61661 | 2341 ft | 65 kts | 356° |
| 2026-05-07 18:59 | 46.55757 | 6.61596 | 2568 ft | 64 kts | 357° |
| 2026-05-07 19:00 | 46.56229 | 6.61560 | 2745 ft | 70 kts | 353° |
| 2026-05-07 19:00 | 46.56727 | 6.61467 | 2915 ft | 74 kts | 353° |
| 2026-05-07 19:00 | 46.57295 | 6.61338 | 3015 ft | 90 kts | 354° |
| 2026-05-07 19:00 | 46.57930 | 6.61256 | 3164 ft | 93 kts | 359° |
| 2026-05-07 19:01 | 46.58531 | 6.61353 | 3368 ft | 90 kts | 357° |
| 2026-05-07 19:01 | 46.59153 | 6.61162 | 3463 ft | 96 kts | 349° |
| 2026-05-07 19:01 | 46.59772 | 6.60846 | 3666 ft | 92 kts | 346° |
| 2026-05-07 19:01 | 46.60332 | 6.61128 | 3857 ft | 92 kts | 37° |
| 2026-05-07 19:02 | 46.60865 | 6.61733 | 3871 ft | 108 kts | 48° |
| 2026-05-07 19:02 | 46.61027 | 6.62793 | 3959 ft | 109 kts | 101° |
| 2026-05-07 19:02 | 46.60511 | 6.63661 | 3924 ft | 121 kts | 139° |
| 2026-05-07 19:02 | 46.59857 | 6.64385 | 4037 ft | 112 kts | 139° |
| 2026-05-07 19:03 | 46.59224 | 6.65034 | 4045 ft | 114 kts | 141° |
| 2026-05-07 19:03 | 46.58560 | 6.65685 | 4046 ft | 114 kts | 141° |
| 2026-05-07 19:03 | 46.57974 | 6.66444 | 4053 ft | 113 kts | 134° |
| 2026-05-07 19:03 | 46.57357 | 6.67200 | 3974 ft | 118 kts | 139° |
| 2026-05-07 19:04 | 46.56779 | 6.68010 | 3977 ft | 113 kts | 127° |
| 2026-05-07 19:04 | 46.56254 | 6.68854 | 3966 ft | 114 kts | 134° |
| 2026-05-07 19:04 | 46.55647 | 6.69593 | 3949 ft | 112 kts | 135° |
| 2026-05-07 19:04 | 46.55054 | 6.70356 | 3905 ft | 116 kts | 135° |
| 2026-05-07 19:05 | 46.54413 | 6.71059 | 3847 ft | 116 kts | 140° |
| 2026-05-07 19:05 | 46.53751 | 6.71755 | 3784 ft | 119 kts | 143° |
| 2026-05-07 19:05 | 46.53182 | 6.72575 | 3806 ft | 114 kts | 124° |
| 2026-05-07 19:05 | 46.52765 | 6.73525 | 3808 ft | 110 kts | 115° |
| 2026-05-07 19:06 | 46.52328 | 6.74447 | 3808 ft | 114 kts | 124° |
| 2026-05-07 19:06 | 46.51441 | 6.76303 | 3896 ft | 113 kts | 116° |
| 2026-05-07 19:06 | 46.50928 | 6.77173 | 3920 ft | 116 kts | 135° |
| 2026-05-07 19:07 | 46.50551 | 6.78157 | 3841 ft | 119 kts | 85° |
| 2026-05-07 19:07 | 46.50731 | 6.79254 | 3968 ft | 105 kts | 72° |
| 2026-05-07 19:07 | 46.50904 | 6.80296 | 3970 ft | 108 kts | 78° |
| 2026-05-07 19:07 | 46.50902 | 6.81381 | 3871 ft | 110 kts | 102° |
| 2026-05-07 19:08 | 46.50523 | 6.82359 | 3965 ft | 111 kts | 122° |
| 2026-05-07 19:08 | 46.50037 | 6.83285 | 4029 ft | 115 kts | 123° |
| 2026-05-07 19:08 | 46.49617 | 6.84221 | 4092 ft | 114 kts | 117° |
| 2026-05-07 19:08 | 46.49181 | 6.85183 | 4130 ft | 115 kts | 118° |
| 2026-05-07 19:09 | 46.48744 | 6.86171 | 4074 ft | 120 kts | 126° |
| 2026-05-07 19:09 | 46.48165 | 6.87045 | 4121 ft | 118 kts | 136° |
| 2026-05-07 19:09 | 46.47587 | 6.87899 | 4130 ft | 120 kts | 131° |
| 2026-05-07 19:09 | 46.46983 | 6.88725 | 4168 ft | 119 kts | 142° |
| 2026-05-07 19:10 | 46.46302 | 6.89426 | 4171 ft | 121 kts | 145° |
| 2026-05-07 19:10 | 46.45589 | 6.90069 | 4207 ft | 121 kts | 153° |
| 2026-05-07 19:10 | 46.44812 | 6.90529 | 4191 ft | 123 kts | 160° |
| 2026-05-07 19:10 | 46.44002 | 6.90952 | 4171 ft | 125 kts | 161° |
| 2026-05-07 19:11 | 46.43175 | 6.91346 | 4169 ft | 126 kts | 164° |
| 2026-05-07 19:11 | 46.42325 | 6.91680 | 4142 ft | 126 kts | 166° |
| 2026-05-07 19:11 | 46.41474 | 6.91888 | 4095 ft | 123 kts | 185° |
| 2026-05-07 19:11 | 46.40650 | 6.91482 | 3911 ft | 132 kts | 204° |
| 2026-05-07 19:12 | 46.39833 | 6.90948 | 3912 ft | 125 kts | 205° |
| 2026-05-07 19:12 | 46.39037 | 6.90410 | 3842 ft | 127 kts | 206° |
| 2026-05-07 19:12 | 46.38254 | 6.89843 | 3833 ft | 127 kts | 206° |
| 2026-05-07 19:12 | 46.37443 | 6.89401 | 3854 ft | 124 kts | 195° |
| 2026-05-07 19:13 | 46.36594 | 6.89091 | 3791 ft | 128 kts | 195° |
| 2026-05-07 19:13 | 46.35728 | 6.88978 | 3725 ft | 129 kts | 166° |
| 2026-05-07 19:13 | 46.35040 | 6.89752 | 3699 ft | 130 kts | 115° |
| 2026-05-07 19:13 | 46.34926 | 6.91046 | 3703 ft | 129 kts | 86° |
| 2026-05-07 19:14 | 46.34733 | 6.92256 | 3776 ft | 127 kts | 125° |
| 2026-05-07 19:14 | 46.34018 | 6.92892 | 3882 ft | 124 kts | 175° |
| 2026-05-07 19:14 | 46.33239 | 6.92394 | 3878 ft | 128 kts | 233° |
| 2026-05-07 19:14 | 46.33101 | 6.91183 | 3846 ft | 132 kts | 289° |
| 2026-05-07 19:15 | 46.33763 | 6.90310 | 3837 ft | 127 kts | 335° |
| 2026-05-07 19:15 | 46.34518 | 6.89750 | 3816 ft | 121 kts | 331° |
| 2026-05-07 19:15 | 46.35249 | 6.89097 | 3820 ft | 122 kts | 324° |
| 2026-05-07 19:15 | 46.35883 | 6.88313 | 3802 ft | 123 kts | 318° |
| 2026-05-07 19:16 | 46.36550 | 6.87526 | 3818 ft | 122 kts | 327° |
| 2026-05-07 19:16 | 46.37096 | 6.86569 | 3804 ft | 128 kts | 300° |
| 2026-05-07 19:16 | 46.37480 | 6.85438 | 3884 ft | 124 kts | 297° |
| 2026-05-07 19:16 | 46.37877 | 6.84323 | 3913 ft | 125 kts | 301° |
| 2026-05-07 19:17 | 46.38326 | 6.83265 | 3949 ft | 124 kts | 304° |
| 2026-05-07 19:17 | 46.38823 | 6.82218 | 3948 ft | 129 kts | 308° |
| 2026-05-07 19:17 | 46.39346 | 6.81192 | 4018 ft | 124 kts | 317° |
| 2026-05-07 19:17 | 46.39758 | 6.80057 | 3939 ft | 136 kts | 285° |
| 2026-05-07 19:18 | 46.39912 | 6.78742 | 3971 ft | 129 kts | 284° |
| 2026-05-07 19:18 | 46.40080 | 6.77416 | 3796 ft | 132 kts | 277° |
| 2026-05-07 19:18 | 46.39972 | 6.76126 | 3762 ft | 131 kts | 261° |
| 2026-05-07 19:18 | 46.39825 | 6.74834 | 3771 ft | 127 kts | 267° |
| 2026-05-07 19:19 | 46.39804 | 6.73553 | 3774 ft | 130 kts | 274° |
| 2026-05-07 19:19 | 46.39745 | 6.72252 | 3726 ft | 131 kts | 269° |
| 2026-05-07 19:19 | 46.39688 | 6.70962 | 3734 ft | 129 kts | 273° |
| 2026-05-07 19:19 | 46.39706 | 6.69616 | 3602 ft | 134 kts | 273° |
| 2026-05-07 19:20 | 46.39732 | 6.68325 | 3584 ft | 129 kts | 277° |
| 2026-05-07 19:20 | 46.39875 | 6.67051 | 3534 ft | 127 kts | 288° |
| 2026-05-07 19:20 | 46.40219 | 6.65948 | 3536 ft | 121 kts | 304° |
| 2026-05-07 19:20 | 46.40373 | 6.64649 | 3335 ft | 134 kts | 270° |
| 2026-05-07 19:21 | 46.40263 | 6.63349 | 3345 ft | 129 kts | 264° |
| 2026-05-07 19:21 | 46.40145 | 6.62084 | 3317 ft | 123 kts | 269° |
| 2026-05-07 19:21 | 46.40100 | 6.60890 | 3340 ft | 119 kts | 270° |
| 2026-05-07 19:21 | 46.40065 | 6.59698 | 3317 ft | 121 kts | 273° |
| 2026-05-07 19:22 | 46.40044 | 6.58485 | 3338 ft | 119 kts | 265° |
| 2026-05-07 19:22 | 46.39925 | 6.57275 | 3295 ft | 123 kts | 268° |
| 2026-05-07 19:22 | 46.39931 | 6.56057 | 3275 ft | 122 kts | 276° |
| 2026-05-07 19:22 | 46.39872 | 6.54813 | 3237 ft | 123 kts | 261° |
| 2026-05-07 19:23 | 46.39607 | 6.53635 | 3201 ft | 124 kts | 253° |
| 2026-05-07 19:23 | 46.39338 | 6.52478 | 3194 ft | 122 kts | 256° |
| 2026-05-07 19:23 | 46.39081 | 6.51279 | 3140 ft | 124 kts | 257° |
| 2026-05-07 19:23 | 46.38839 | 6.50095 | 3106 ft | 124 kts | 257° |
| 2026-05-07 19:24 | 46.38600 | 6.48892 | 3053 ft | 125 kts | 261° |
| 2026-05-07 19:24 | 46.38407 | 6.47709 | 3074 ft | 116 kts | 259° |
| 2026-05-07 19:24 | 46.38246 | 6.46529 | 2972 ft | 121 kts | 262° |
| 2026-05-07 19:24 | 46.38120 | 6.45338 | 2938 ft | 119 kts | 264° |
| 2026-05-07 19:25 | 46.38012 | 6.44155 | 2903 ft | 118 kts | 263° |
| 2026-05-07 19:25 | 46.37624 | 6.43102 | 2832 ft | 122 kts | 225° |
| 2026-05-07 19:25 | 46.36928 | 6.42513 | 2840 ft | 117 kts | 192° |
| 2026-05-07 19:25 | 46.36157 | 6.42630 | 2908 ft | 110 kts | 144° |
| 2026-05-07 19:26 | 46.35866 | 6.43579 | 3006 ft | 110 kts | 78° |
| 2026-05-07 19:26 | 46.36364 | 6.44382 | 3029 ft | 118 kts | 20° |
| 2026-05-07 19:26 | 46.37143 | 6.44127 | 3076 ft | 122 kts | 318° |
| 2026-05-07 19:26 | 46.37342 | 6.42983 | 3143 ft | 126 kts | 257° |
| 2026-05-07 19:27 | 46.37032 | 6.41808 | 3282 ft | 125 kts | 249° |
| 2026-05-07 19:27 | 46.36677 | 6.40649 | 3360 ft | 128 kts | 241° |
| 2026-05-07 19:27 | 46.36083 | 6.39693 | 3457 ft | 127 kts | 223° |
| 2026-05-07 19:27 | 46.35447 | 6.38872 | 3589 ft | 124 kts | 217° |
| 2026-05-07 19:28 | 46.34756 | 6.38122 | 3694 ft | 124 kts | 215° |
| 2026-05-07 19:28 | 46.34062 | 6.37346 | 3776 ft | 127 kts | 218° |
| 2026-05-07 19:28 | 46.33394 | 6.36501 | 3833 ft | 130 kts | 220° |
| 2026-05-07 19:28 | 46.32718 | 6.35601 | 3865 ft | 133 kts | 223° |
| 2026-05-07 19:29 | 46.32101 | 6.34618 | 3896 ft | 130 kts | 230° |
| 2026-05-07 19:29 | 46.31531 | 6.33593 | 3869 ft | 131 kts | 231° |
| 2026-05-07 19:29 | 46.30968 | 6.32546 | 3823 ft | 133 kts | 233° |
| 2026-05-07 19:29 | 46.30400 | 6.31507 | 3818 ft | 133 kts | 231° |
| 2026-05-07 19:30 | 46.29799 | 6.30485 | 3765 ft | 134 kts | 230° |
| 2026-05-07 19:30 | 46.29225 | 6.29427 | 3749 ft | 133 kts | 235° |
| 2026-05-07 19:30 | 46.28696 | 6.28313 | 3698 ft | 136 kts | 234° |
| 2026-05-07 19:30 | 46.28073 | 6.27244 | 3667 ft | 133 kts | 228° |
| 2026-05-07 19:31 | 46.27480 | 6.26349 | 3649 ft | 132 kts | 225° |
| 2026-05-07 19:31 | 46.26823 | 6.25352 | 3589 ft | 133 kts | 225° |
| 2026-05-07 19:31 | 46.26151 | 6.24429 | 3516 ft | 133 kts | 221° |
| 2026-05-07 19:31 | 46.25458 | 6.23562 | 3419 ft | 130 kts | 222° |
| 2026-05-07 19:32 | 46.24809 | 6.22703 | 3426 ft | 125 kts | 220° |
| 2026-05-07 19:32 | 46.24149 | 6.21890 | 3413 ft | 125 kts | 220° |
| 2026-05-07 19:32 | 46.23483 | 6.21078 | 3417 ft | 126 kts | 219° |
| 2026-05-07 19:32 | 46.22831 | 6.20277 | 3438 ft | 124 kts | 219° |
| 2026-05-07 19:33 | 46.22164 | 6.19488 | 3457 ft | 121 kts | 218° |
| 2026-05-07 19:33 | 46.21612 | 6.18682 | 3582 ft | 114 kts | 248° |
| 2026-05-07 19:33 | 46.21508 | 6.17547 | 3550 ft | 116 kts | 264° |
| 2026-05-07 19:33 | 46.21359 | 6.16413 | 3544 ft | 114 kts | 260° |
| 2026-05-07 19:34 | 46.21233 | 6.15347 | 3644 ft | 103 kts | 274° |
| 2026-05-07 19:34 | 46.21473 | 6.14393 | 3603 ft | 101 kts | 310° |
| 2026-05-07 19:34 | 46.21884 | 6.13548 | 3562 ft | 105 kts | 307° |
| 2026-05-07 19:34 | 46.22277 | 6.12610 | 3514 ft | 113 kts | 305° |
| 2026-05-07 19:35 | 46.22687 | 6.11634 | 3458 ft | 118 kts | 306° |
| 2026-05-07 19:35 | 46.23094 | 6.10621 | 3484 ft | 115 kts | 304° |
| 2026-05-07 19:35 | 46.23485 | 6.09606 | 3530 ft | 114 kts | 301° |
| 2026-05-07 19:35 | 46.23778 | 6.08555 | 3415 ft | 117 kts | 289° |
| 2026-05-07 19:36 | 46.23588 | 6.07442 | 3130 ft | 114 kts | 232° |
| 2026-05-07 19:36 | 46.23004 | 6.06725 | 2849 ft | 107 kts | 214° |
| 2026-05-07 19:36 | 46.22430 | 6.06137 | 2690 ft | 94 kts | 222° |
| 2026-05-07 19:36 | 46.21920 | 6.06244 | 2391 ft | 83 kts | 98° |
| 2026-05-07 19:37 | 46.21982 | 6.07029 | 2195 ft | 76 kts | 71° |
| 2026-05-07 19:37 | 46.22073 | 6.07752 | 2049 ft | 71 kts | 76° |
| 2026-05-07 19:37 | 46.22217 | 6.08419 | 1855 ft | 67 kts | 59° |
| 2026-05-07 19:37 | 46.22500 | 6.08938 | 1639 ft | 66 kts | 48° |
| 2026-05-07 19:38 | 46.22806 | 6.09416 | 1465 ft | 64 kts | 47° |
| 2026-05-07 19:38 | 46.23098 | 6.09846 | 1403 ft | 54 kts | 45° |
| 2026-05-07 19:38 | 46.23255 | 6.10074 | 1395 ft | 19 kts | 50° |
| 2026-05-07 19:38 | 46.23321 | 6.10099 | 1397 ft | 10 kts | 321° |
| 2026-05-07 19:39 | 46.23371 | 6.10032 | 1395 ft | 6 kts | 316° |
| 2026-05-07 19:39 | 46.23384 | 6.10013 | 1395 ft | 0 kts | 313° |
| 2026-05-07 19:40 | 46.23399 | 6.09993 | 1395 ft | 8 kts | 317° |
| 2026-05-07 19:40 | 46.23444 | 6.09930 | 1395 ft | 11 kts | 314° |
| 2026-05-07 19:40 | 46.23487 | 6.09876 | 1393 ft | 5 kts | 3° |
| 2026-05-07 19:40 | 46.23532 | 6.09937 | 1392 ft | 13 kts | 45° |
| 2026-05-07 19:41 | 46.23579 | 6.10006 | 1392 ft | 8 kts | 45° |
| 2026-05-07 19:41 | 46.23611 | 6.10047 | 1392 ft | 3 kts | 11° |
| 2026-05-07 19:41 | 46.23631 | 6.10022 | 1393 ft | 0 kts | 317° |